Time;durP1;ratioP1;P1;durP2;ratioP2;P2;SDS_P1;SDS_P2;PMS_P1;PMS_P2;Temp;Humidity;BMP_temperature;BMP_pressure;BME280_temperature;BME280_humidity;BME280_pressure;Samples;Min_cycle;Max_cycle;Signal;HPM_P1;HPM_P2
2023/06/18 00:00:13;;;;;;;1999.90;999.90;;;;;;;18.32;100.00;97871.69;4992666;28;20053;-76
2023/06/18 00:02:39;;;;;;;1999.90;999.90;;;;;;;18.31;100.00;97878.38;4992597;28;20463;-76
2023/06/18 00:05:05;;;;;;;1999.90;999.90;;;;;;;18.30;100.00;97879.53;4975017;28;20034;-75
2023/06/18 00:07:30;;;;;;;1999.90;999.90;;;;;;;18.28;100.00;97872.72;4992445;28;20065;-76
2023/06/18 00:09:57;;;;;;;1999.90;999.90;;;;;;;18.25;100.00;97876.19;4992335;28;20046;-75
2023/06/18 00:12:23;;;;;;;1999.90;999.90;;;;;;;18.28;100.00;97878.25;4982338;28;20365;-76
2023/06/18 00:14:48;;;;;;;1999.90;999.90;;;;;;;18.22;100.00;97876.88;4994189;28;20049;-76
2023/06/18 00:17:13;;;;;;;1999.90;999.90;;;;;;;18.12;100.00;97862.34;5011854;28;20384;-76
2023/06/18 00:19:39;;;;;;;1999.90;999.90;;;;;;;18.11;100.00;97868.22;4984077;28;20377;-76
2023/06/18 00:22:05;;;;;;;1999.90;999.90;;;;;;;18.13;100.00;97872.28;4992166;28;20023;-76
2023/06/18 00:24:31;;;;;;;1999.90;999.90;;;;;;;18.08;100.00;97861.44;4974661;28;20030;-76
2023/06/18 00:26:56;;;;;;;1999.90;999.90;;;;;;;18.06;100.00;97869.28;4992236;28;20022;-75
2023/06/18 00:29:21;;;;;;;1999.90;999.90;;;;;;;18.01;100.00;97872.25;4991975;28;20022;-76
2023/06/18 00:31:47;;;;;;;1999.90;999.90;;;;;;;18.04;100.00;97876.31;4974442;28;20384;-76
2023/06/18 00:34:12;;;;;;;1999.90;999.90;;;;;;;18.02;100.00;97873.88;4991990;28;20034;-76
2023/06/18 00:36:38;;;;;;;1999.90;999.90;;;;;;;18.02;100.00;97868.34;4991763;28;20305;-75
2023/06/18 00:39:04;;;;;;;1999.90;999.90;;;;;;;18.04;100.00;97879.09;4991852;28;20550;-76
2023/06/18 00:41:32;;;;;;;1999.90;999.90;;;;;;;17.96;100.00;97869.72;4991806;28;20057;-76
2023/06/18 00:43:58;;;;;;;1999.90;999.90;;;;;;;17.97;100.00;97874.13;4993993;28;20031;-78
2023/06/18 00:46:26;;;;;;;1999.90;999.90;;;;;;;17.93;100.00;97867.66;4990553;28;20030;-76
2023/06/18 00:48:52;;;;;;;1999.90;999.90;;;;;;;17.94;100.00;97877.59;4990549;28;20023;-76
2023/06/18 00:51:18;;;;;;;1999.90;999.90;;;;;;;17.93;100.00;97864.88;4999265;28;20029;-75
2023/06/18 00:53:44;;;;;;;1999.90;999.90;;;;;;;17.92;100.00;97866.03;5001817;28;20773;-75
2023/06/18 00:56:10;;;;;;;1999.90;999.90;;;;;;;17.90;100.00;97870.31;4997719;28;20026;-76
2023/06/18 00:58:36;;;;;;;1999.90;999.90;;;;;;;17.86;100.00;97866.59;4993159;28;20031;-75
2023/06/18 01:01:02;;;;;;;1999.90;999.90;;;;;;;17.79;100.00;97858.91;4974195;28;20030;-76
2023/06/18 01:03:28;;;;;;;1999.90;999.90;;;;;;;17.73;100.00;97865.78;4991737;28;20089;-75
2023/06/18 01:05:57;;;;;;;1999.90;999.90;;;;;;;17.71;100.00;97862.56;4973961;28;20026;-74
2023/06/18 01:08:23;;;;;;;1999.90;999.90;;;;;;;17.66;100.00;97865.56;4991641;28;20030;-77
2023/06/18 01:11:01;;;;;;;1999.90;999.90;;;;;;;17.68;100.00;97868.78;4995131;28;20037;-76
2023/06/18 01:13:30;;;;;;;1999.90;999.90;;;;;;;17.70;100.00;97865.69;4995040;28;20030;-75
2023/06/18 01:15:58;;;;;;;1999.90;999.90;;;;;;;17.65;100.00;97861.16;4991278;28;20054;-76
2023/06/18 01:18:24;;;;;;;1999.90;999.90;;;;;;;17.65;100.00;97855.63;4974254;28;20092;-76
2023/06/18 01:20:51;;;;;;;1999.90;999.90;;;;;;;17.61;100.00;97860.22;4993320;28;20097;-74
2023/06/18 01:23:27;;;;;;;1999.90;999.90;;;;;;;17.49;100.00;97854.66;4993526;28;20030;-76
2023/06/18 01:25:57;;;;;;;1999.90;999.90;;;;;;;17.41;100.00;97852.81;4992148;28;20030;-74
2023/06/18 01:28:24;;;;;;;1999.90;999.90;;;;;;;17.34;100.00;97861.66;4991418;28;20058;-75
2023/06/18 01:30:50;;;;;;;1999.90;999.90;;;;;;;17.33;100.00;97861.97;4991268;28;20040;-75
2023/06/18 01:33:15;;;;;;;1999.90;999.90;;;;;;;17.31;100.00;97865.09;4991080;28;20022;-76
2023/06/18 01:35:41;;;;;;;1999.90;999.90;;;;;;;17.32;100.00;97854.84;4974758;28;20060;-76
2023/06/18 01:38:30;;;;;;;1999.90;999.90;;;;;;;17.25;100.00;97849.06;4993000;28;20113;-75
2023/06/18 01:40:58;;;;;;;1999.90;999.90;;;;;;;17.25;100.00;97854.59;4991237;28;20038;-74
2023/06/18 01:43:38;;;;;;;1999.90;999.90;;;;;;;17.18;100.00;97862.63;4991180;28;20483;-75
2023/06/18 01:46:07;;;;;;;1999.90;999.90;;;;;;;17.10;100.00;97859.59;4973579;28;20026;-74
2023/06/18 01:48:39;;;;;;;1999.90;999.90;;;;;;;17.07;100.00;97860.28;4991043;28;20037;-76
2023/06/18 01:51:06;;;;;;;1999.90;999.90;;;;;;;17.06;100.00;97866.97;5010030;28;20149;-76
2023/06/18 01:53:35;;;;;;;1999.90;999.90;;;;;;;17.00;100.00;97862.00;4992846;28;20030;-74
2023/06/18 01:56:01;;;;;;;1999.90;999.90;;;;;;;16.96;100.00;97859.09;5011009;28;20041;-76
2023/06/18 01:58:31;;;;;;;1999.90;999.90;;;;;;;16.92;100.00;97862.88;4978883;28;20102;-76
2023/06/18 02:00:58;;;;;;;1999.90;999.90;;;;;;;16.87;100.00;97850.09;4971358;28;20030;-75
2023/06/18 02:03:24;;;;;;;1999.90;999.90;;;;;;;16.85;100.00;97857.88;4975063;28;20077;-75
2023/06/18 02:05:50;;;;;;;1999.90;999.90;;;;;;;16.82;100.00;97855.00;4972676;28;20034;-76
2023/06/18 02:08:15;;;;;;;1999.90;999.90;;;;;;;16.73;100.00;97848.75;4974248;28;20027;-75
2023/06/18 02:10:41;;;;;;;1999.90;999.90;;;;;;;16.69;100.00;97854.16;4994346;28;20024;-74
2023/06/18 02:13:07;;;;;;;1999.90;999.90;;;;;;;16.69;100.00;97858.84;4994531;28;20026;-75
2023/06/18 02:15:32;;;;;;;1999.90;999.90;;;;;;;16.64;100.00;97856.28;4994326;28;20023;-75
2023/06/18 02:17:57;;;;;;;1999.90;999.90;;;;;;;16.62;100.00;97858.59;4994409;28;20026;-76
2023/06/18 02:20:23;;;;;;;1999.90;999.90;;;;;;;16.58;100.00;97858.44;4994528;28;20088;-76
2023/06/18 02:22:49;;;;;;;1999.90;999.90;;;;;;;16.56;100.00;97861.56;4994532;28;20022;-75
2023/06/18 02:25:18;;;;;;;1999.90;999.90;;;;;;;16.54;100.00;97857.47;4994430;28;20030;-75
2023/06/18 02:27:52;;;;;;;1999.90;999.90;;;;;;;16.42;100.00;97849.09;4977219;28;20464;-76
2023/06/18 02:30:17;;;;;;;1999.90;999.90;;;;;;;16.48;100.00;97858.81;4994035;28;20484;-75
2023/06/18 02:32:46;;;;;;;1999.90;999.90;;;;;;;16.46;100.00;97855.59;4994250;28;20025;-74
2023/06/18 02:35:11;;;;;;;1999.90;999.90;;;;;;;16.50;100.00;97864.81;4976794;28;20031;-75
2023/06/18 02:37:37;;;;;;;1999.90;999.90;;;;;;;16.44;100.00;97860.63;4994053;28;20101;-75
2023/06/18 02:40:03;;;;;;;1999.90;999.90;;;;;;;16.48;100.00;97872.63;4976605;28;20129;-75
2023/06/18 02:42:31;;;;;;;1999.90;999.90;;;;;;;16.46;100.00;97872.97;4994107;28;20022;-74
2023/06/18 02:44:57;;;;;;;1999.90;999.90;;;;;;;16.42;100.00;97871.19;4994154;28;20030;-74
2023/06/18 02:47:22;;;;;;;1999.90;999.90;;;;;;;16.38;100.00;97862.75;4994077;28;20028;-75
2023/06/18 02:49:47;;;;;;;1999.90;999.90;;;;;;;16.39;100.00;97871.88;4994031;28;20054;-76
2023/06/18 02:52:13;;;;;;;1999.90;999.90;;;;;;;16.36;100.00;97878.88;4994293;28;20125;-75
2023/06/18 02:54:38;;;;;;;1999.90;999.90;;;;;;;16.33;100.00;97874.03;4993831;28;20110;-75
2023/06/18 02:57:04;;;;;;;1999.90;999.90;;;;;;;16.32;100.00;97871.59;4994133;28;20019;-75
2023/06/18 02:59:30;;;;;;;1999.90;999.90;;;;;;;16.30;100.00;97874.69;4976314;28;20030;-75
2023/06/18 03:01:56;;;;;;;1999.90;999.90;;;;;;;16.10;100.00;97866.38;4976408;28;20037;-74
2023/06/18 03:04:22;;;;;;;1999.90;999.90;;;;;;;16.12;100.00;97875.94;4993839;28;20034;-74
2023/06/18 03:06:47;;;;;;;1999.90;999.90;;;;;;;16.02;100.00;97879.88;4993387;28;20038;-74
2023/06/18 03:09:12;;;;;;;1999.90;999.90;;;;;;;16.05;100.00;97875.66;4976139;28;20033;-73
2023/06/18 03:11:38;;;;;;;1999.90;999.90;;;;;;;16.13;100.00;97885.03;4993364;28;20026;-74
2023/06/18 03:14:04;;;;;;;1999.90;999.90;;;;;;;16.14;100.00;97886.63;4976100;28;20026;-75
2023/06/18 03:16:30;;;;;;;1999.90;999.90;;;;;;;16.18;100.00;97882.06;4993664;28;20054;-74
2023/06/18 03:18:56;;;;;;;1999.90;999.90;;;;;;;16.22;100.00;97891.31;4994949;28;20102;-74
2023/06/18 03:21:22;;;;;;;1999.90;999.90;;;;;;;16.20;100.00;97885.28;5000271;28;20476;-75
2023/06/18 03:23:49;;;;;;;1999.90;999.90;;;;;;;16.15;100.00;97882.75;4996326;28;20053;-74
2023/06/18 03:26:15;;;;;;;1999.90;999.90;;;;;;;16.12;100.00;97877.88;4993494;28;20058;-74
2023/06/18 03:28:40;;;;;;;1999.90;999.90;;;;;;;16.07;100.00;97887.97;4993563;28;20057;-76
2023/06/18 03:31:06;;;;;;;1999.90;999.90;;;;;;;16.04;100.00;97877.59;4993355;28;20119;-76
2023/06/18 03:33:32;;;;;;;1999.90;999.90;;;;;;;16.20;100.00;97891.63;4993366;28;20084;-73
2023/06/18 03:36:00;;;;;;;1999.90;999.90;;;;;;;16.34;100.00;97894.16;4993270;28;20554;-74
2023/06/18 03:38:29;;;;;;;1999.90;999.90;;;;;;;16.44;100.00;97894.59;4993188;28;20030;-75
2023/06/18 03:40:55;;;;;;;1999.90;999.90;;;;;;;16.60;100.00;97900.38;4991799;28;20045;-74
2023/06/18 03:43:20;;;;;;;1999.90;999.90;;;;;;;16.69;100.00;97895.56;4976771;28;20026;-75
2023/06/18 03:45:45;;;;;;;1999.90;999.90;;;;;;;16.85;100.00;97893.81;4975530;28;20576;-76
2023/06/18 03:48:11;;;;;;;1999.90;999.90;;;;;;;17.01;100.00;97899.53;4985611;28;20440;-75
2023/06/18 03:50:36;;;;;;;1999.90;999.90;;;;;;;17.19;100.00;97902.97;4975178;28;20023;-77
2023/06/18 03:53:02;;;;;;;1999.90;999.90;;;;;;;17.37;100.00;97891.38;4972091;28;20035;-76
2023/06/18 03:55:28;;;;;;;1999.90;999.90;;;;;;;17.59;100.00;97899.31;4973024;28;20027;-75
2023/06/18 03:57:53;;;;;;;1999.90;999.90;;;;;;;17.76;100.00;97903.81;4973228;28;20815;-73
2023/06/18 04:00:19;;;;;;;1999.90;999.90;;;;;;;17.92;100.00;97896.47;4981558;28;20034;-74
2023/06/18 04:02:44;;;;;;;1999.90;999.90;;;;;;;18.15;100.00;97905.97;4992247;28;20029;-74
2023/06/18 04:05:10;;;;;;;1999.90;999.90;;;;;;;18.37;100.00;97906.66;4992102;28;20439;-74
2023/06/18 04:07:36;;;;;;;1999.90;999.90;;;;;;;18.50;100.00;97902.75;4992277;28;20037;-75
2023/06/18 04:10:02;;;;;;;1999.90;999.90;;;;;;;18.53;100.00;97904.81;4992244;28;20035;-74
2023/06/18 04:12:27;;;;;;;1999.90;999.90;;;;;;;18.62;100.00;97905.50;4992223;28;20539;-75
2023/06/18 04:14:52;;;;;;;1999.90;999.90;;;;;;;18.79;100.00;97899.69;4992046;28;20030;-74
2023/06/18 04:17:18;;;;;;;1999.90;999.90;;;;;;;18.88;100.00;97905.09;4992232;28;20379;-75
2023/06/18 04:19:43;;;;;;;1999.90;999.90;;;;;;;18.88;100.00;97905.91;4974521;28;20034;-75
2023/06/18 04:22:08;;;;;;;1999.90;999.90;;;;;;;18.79;100.00;97901.66;4991876;28;20390;-74
2023/06/18 04:24:33;;;;;;;1999.90;999.90;;;;;;;18.63;100.00;97910.69;4974621;28;20380;-74
2023/06/18 04:26:59;;;;;;;1999.90;999.90;;;;;;;18.26;100.00;97914.63;4991898;28;20030;-74
2023/06/18 04:29:24;;;;;;;1999.90;999.90;;;;;;;17.99;100.00;97910.56;4991972;28;20511;-75
2023/06/18 04:31:50;;;;;;;1999.90;999.90;;;;;;;17.92;100.00;97913.09;4991288;28;20117;-74
2023/06/18 04:34:16;;;;;;;1999.90;999.90;;;;;;;17.91;100.00;97914.25;4970660;28;20039;-74
2023/06/18 04:36:41;;;;;;;1999.90;999.90;;;;;;;17.60;100.00;97913.97;4988107;28;20057;-75
2023/06/18 04:39:07;;;;;;;1999.90;999.90;;;;;;;17.34;100.00;97924.44;5011038;28;20029;-75
2023/06/18 04:41:32;;;;;;;1999.90;999.90;;;;;;;17.47;100.00;97918.63;5011255;28;20041;-74
2023/06/18 04:43:57;;;;;;;1999.90;999.90;;;;;;;17.64;100.00;97914.88;5010998;28;20076;-75
2023/06/18 04:46:23;;;;;;;1999.90;999.90;;;;;;;17.37;100.00;97918.22;5010978;28;20030;-74
2023/06/18 04:48:48;;;;;;;1999.90;999.90;;;;;;;17.48;100.00;97913.88;5011050;28;20026;-74
2023/06/18 04:51:13;;;;;;;1999.90;999.90;;;;;;;17.62;100.00;97915.22;5015416;28;20033;-80
2023/06/18 04:53:39;;;;;;;1999.90;999.90;;;;;;;17.82;100.00;97918.28;5013073;28;20160;-81
2023/06/18 04:56:04;;;;;;;1999.90;999.90;;;;;;;17.87;100.00;97916.09;5012508;28;20033;-79
2023/06/18 04:58:34;;;;;;;1999.90;999.90;;;;;;;17.89;100.00;97915.72;4997256;28;20028;-79
2023/06/18 05:01:01;;;;;;;1999.90;999.90;;;;;;;17.92;100.00;97912.28;5012859;28;20042;-80
2023/06/18 05:03:27;;;;;;;1999.90;999.90;;;;;;;17.99;100.00;97918.88;4994862;28;20483;-79
2023/06/18 05:05:52;;;;;;;1999.90;999.90;;;;;;;18.07;100.00;97915.16;5013083;28;20033;-83
2023/06/18 05:08:17;;;;;;;1999.90;999.90;;;;;;;18.09;100.00;97912.88;5015320;28;20115;-80
2023/06/18 05:10:43;;;;;;;1999.90;999.90;;;;;;;18.22;100.00;97916.47;5000042;28;20057;-81
2023/06/18 05:13:08;;;;;;;1999.90;999.90;;;;;;;18.29;100.00;97911.16;4994629;28;20028;-73
2023/06/18 05:15:33;;;;;;;1999.90;999.90;;;;;;;18.42;100.00;97926.59;5010685;28;20032;-73
2023/06/18 05:17:59;;;;;;;1999.90;999.90;;;;;;;18.49;100.00;97926.03;5010594;28;20061;-73
2023/06/18 05:20:24;;;;;;;1999.90;999.90;;;;;;;18.52;100.00;97928.13;5010676;28;20757;-72
2023/06/18 05:22:50;;;;;;;1999.90;999.90;;;;;;;18.60;100.00;97927.22;4995700;28;20034;-73
2023/06/18 05:25:15;;;;;;;1999.90;999.90;;;;;;;18.66;100.00;97929.41;4990823;28;20050;-73
2023/06/18 05:27:41;;;;;;;1999.90;999.90;;;;;;;18.58;100.00;97926.72;4992266;28;20391;-73
2023/06/18 05:30:07;;;;;;;1999.90;999.90;;;;;;;18.71;100.00;97922.78;4993615;28;20034;-73
2023/06/18 05:32:32;;;;;;;1999.90;999.90;;;;;;;18.78;100.00;97931.34;5002378;28;20033;-74
2023/06/18 05:34:58;;;;;;;1999.90;999.90;;;;;;;18.86;100.00;97937.91;5010586;28;20442;-73
2023/06/18 05:37:24;;;;;;;1999.90;999.90;;;;;;;18.86;100.00;97935.94;4992646;28;20491;-72
2023/06/18 05:39:52;;;;;;;1999.90;999.90;;;;;;;18.95;100.00;97941.34;4995695;28;21475;-73
2023/06/18 05:42:18;;;;;;;1999.90;999.90;;;;;;;19.02;100.00;97942.38;4982800;28;20034;-72
2023/06/18 05:44:43;;;;;;;1999.90;999.90;;;;;;;19.04;100.00;97951.16;4974804;28;20034;-73
2023/06/18 05:47:08;;;;;;;1999.90;999.90;;;;;;;19.01;100.00;97946.31;4985984;28;20475;-72
2023/06/18 05:49:34;;;;;;;1999.90;999.90;;;;;;;19.06;100.00;97948.03;4994459;28;20034;-73
2023/06/18 05:51:59;;;;;;;1999.90;999.90;;;;;;;19.15;100.00;97949.50;4994893;28;20138;-73
2023/06/18 05:54:27;;;;;;;1999.90;999.90;;;;;;;19.30;100.00;97938.78;4994160;28;20058;-73
2023/06/18 05:56:52;;;;;;;1999.90;999.90;;;;;;;19.31;100.00;97945.97;4977097;28;20048;-74
2023/06/18 05:59:18;;;;;;;1999.90;999.90;;;;;;;19.36;100.00;97942.97;4984546;28;20027;-73
2023/06/18 06:01:43;;;;;;;1999.90;999.90;;;;;;;19.41;100.00;97945.50;4975045;28;20428;-74
2023/06/18 06:04:08;;;;;;;1999.90;999.90;;;;;;;19.46;100.00;97948.03;4997962;28;20026;-73
2023/06/18 06:06:34;;;;;;;1999.90;999.90;;;;;;;19.62;100.00;97952.47;5004247;28;20021;-73
2023/06/18 06:09:00;;;;;;;1999.90;999.90;;;;;;;19.57;100.00;97949.13;4985390;28;20387;-73
2023/06/18 06:11:25;;;;;;;1999.90;999.90;;;;;;;19.68;100.00;97953.00;5003113;28;20023;-73
2023/06/18 06:13:51;;;;;;;1999.90;999.90;;;;;;;19.71;100.00;97955.88;5009333;28;20052;-73
2023/06/18 06:16:16;;;;;;;1999.90;999.90;;;;;;;19.46;100.00;97950.78;5004073;28;20072;-73
2023/06/18 06:18:41;;;;;;;1999.90;999.90;;;;;;;19.40;100.00;97946.66;5016201;28;20086;-84
2023/06/18 06:21:07;;;;;;;1999.90;999.90;;;;;;;19.60;100.00;97951.22;4996716;28;20080;-74
2023/06/18 06:23:32;;;;;;;1999.90;999.90;;;;;;;19.80;100.00;97952.94;4996176;28;20475;-73
2023/06/18 06:25:57;;;;;;;1999.90;999.90;;;;;;;19.89;100.00;97959.13;5016886;28;20022;-73
2023/06/18 06:28:23;;;;;;;1999.90;999.90;;;;;;;20.05;100.00;97953.59;5014235;28;20442;-74
2023/06/18 06:30:48;;;;;;;1999.90;999.90;;;;;;;20.30;100.00;97958.66;5013672;28;20026;-74
2023/06/18 06:33:14;;;;;;;1999.90;999.90;;;;;;;20.51;100.00;97961.19;5013572;28;20486;-74
2023/06/18 06:35:39;;;;;;;1999.90;999.90;;;;;;;20.55;98.62;97964.03;5004947;28;20038;-75
2023/06/18 06:38:04;;;;;;;1999.90;999.90;;;;;;;20.52;98.33;97964.72;4996022;28;20054;-76
2023/06/18 06:40:30;;;;;;;1999.90;999.90;;;;;;;20.78;96.23;97959.41;4981828;28;20042;-75
2023/06/18 06:42:55;;;;;;;1999.90;999.90;;;;;;;20.97;95.23;97958.66;5000234;28;20033;-81
2023/06/18 06:45:21;;;;;;;1999.90;999.90;;;;;;;21.12;92.39;97957.81;4982403;28;20468;-77
2023/06/18 06:47:47;;;;;;;1999.90;999.90;;;;;;;;;;4996449;28;20042;-74
2023/06/18 06:50:12;;;;;;;1999.90;999.90;;;;;;;20.56;92.47;97955.31;5000946;28;20065;-76
2023/06/18 06:52:37;;;;;;;1999.90;999.90;;;;;;;20.62;93.02;97955.84;5004277;28;20038;-75
2023/06/18 06:55:03;;;;;;;1999.90;999.90;;;;;;;20.77;93.37;97955.00;4996628;28;20041;-77
2023/06/18 06:57:28;;;;;;;1999.90;999.90;;;;;;;20.83;93.38;97953.59;4995180;28;20050;-76
2023/06/18 06:59:54;;;;;;;1999.90;999.90;;;;;;;20.86;93.91;97952.06;4993675;28;20034;-77
2023/06/18 07:02:20;;;;;;;1999.90;999.90;;;;;;;20.65;94.40;97955.13;4975713;28;20034;-78
2023/06/18 07:04:47;;;;;;;1999.90;999.90;;;;;;;20.72;95.95;97955.31;4978583;28;20034;-75
2023/06/18 07:07:14;;;;;;;1999.90;999.90;;;;;;;20.84;95.16;97957.97;4993052;28;20018;-74
2023/06/18 07:09:39;;;;;;;1999.90;999.90;;;;;;;20.78;94.81;97953.84;4993512;28;20069;-74
2023/06/18 07:12:05;;;;;;;1999.90;999.90;;;;;;;20.96;94.24;97959.81;4993534;28;20049;-74
2023/06/18 07:14:30;;;;;;;1999.90;999.90;;;;;;;21.30;90.38;97954.25;4993401;28;20062;-74
2023/06/18 07:16:55;;;;;;;1999.90;999.90;;;;;;;21.33;90.15;97959.09;4993293;28;20026;-74
2023/06/18 07:19:20;;;;;;;1999.90;999.90;;;;;;;21.35;89.99;97959.53;4993030;28;20500;-72
2023/06/18 07:21:46;;;;;;;1999.90;999.90;;;;;;;21.51;90.31;97958.66;4993190;28;20381;-77
2023/06/18 07:24:11;;;;;;;1999.90;999.90;;;;;;;21.66;89.06;97961.38;4993185;28;20030;-72
2023/06/18 07:26:37;;;;;;;1999.90;999.90;;;;;;;21.67;86.55;97951.84;4975492;28;20026;-73
2023/06/18 07:29:02;;;;;;;1999.90;999.90;;;;;;;22.05;83.85;97955.78;4995940;28;20038;-73
2023/06/18 07:31:27;;;;;;;1999.90;999.90;;;;;;;22.24;82.03;97945.34;4995476;28;20395;-74
2023/06/18 07:33:53;;;;;;;1999.90;999.90;;;;;;;22.27;81.43;97946.63;5000728;28;20360;-75
2023/06/18 07:36:18;;;;;;;1999.90;999.90;;;;;;;22.47;80.90;97952.91;5006865;28;20046;-76
2023/06/18 07:38:43;;;;;;;1999.90;999.90;;;;;;;22.50;80.97;97946.56;4987604;28;20022;-75
2023/06/18 07:41:09;;;;;;;1999.90;999.90;;;;;;;22.67;79.16;97955.28;5001314;28;20030;-75
2023/06/18 07:43:34;;;;;;;1999.90;999.90;;;;;;;22.79;77.87;97945.88;5001071;28;20029;-75
2023/06/18 07:46:00;;;;;;;1999.90;999.90;;;;;;;22.82;76.94;97950.69;5003064;28;20056;-75
2023/06/18 07:48:25;;;;;;;1999.90;999.90;;;;;;;22.73;77.54;97947.38;5001656;28;20437;-76
2023/06/18 07:50:50;;;;;;;1999.90;999.90;;;;;;;22.89;78.01;97936.88;5001714;28;20550;-75
2023/06/18 07:53:16;;;;;;;1999.90;999.90;;;;;;;23.10;76.33;97941.94;5002844;28;20060;-75
2023/06/18 07:55:41;;;;;;;1999.90;999.90;;;;;;;22.81;75.27;97940.72;4980068;28;20544;-78
2023/06/18 07:58:06;;;;;;;1999.90;999.90;;;;;;;22.98;76.24;97934.59;4984590;28;20121;-77
2023/06/18 08:00:31;;;;;;;1999.90;999.90;;;;;;;23.20;75.24;97936.50;5002260;28;20033;-79
2023/06/18 08:02:57;;;;;;;1999.90;999.90;;;;;;;23.97;75.45;97933.84;5005770;28;20026;-81
2023/06/18 08:05:22;;;;;;;1999.90;999.90;;;;;;;24.64;70.99;97932.88;5006578;28;20092;-84
2023/06/18 08:07:47;;;;;;;1999.90;999.90;;;;;;;25.15;66.50;97939.25;5010561;28;20025;-79
2023/06/18 08:10:13;;;;;;;1999.90;999.90;;;;;;;25.37;63.67;97937.34;5008420;28;20042;-83
2023/06/18 08:12:38;;;;;;;1999.90;999.90;;;;;;;25.24;62.76;97934.09;5001949;28;20037;-82
2023/06/18 08:15:04;;;;;;;1999.90;999.90;;;;;;;24.73;64.80;97927.72;5008504;28;20033;-83
2023/06/18 08:17:29;;;;;;;1999.90;999.90;;;;;;;24.95;64.77;97926.72;5006110;28;20030;-81
2023/06/18 08:19:55;;;;;;;1999.90;999.90;;;;;;;25.15;61.46;97919.66;4987730;28;20029;-81
2023/06/18 08:22:20;;;;;;;1999.90;999.90;;;;;;;25.22;62.34;97919.66;5000878;28;20076;-82
2023/06/18 08:24:45;;;;;;;1999.90;999.90;;;;;;;25.35;62.20;97925.72;4995302;28;20018;-83
2023/06/18 08:27:15;;;;;;;1999.90;999.90;;;;;;;25.43;59.77;97919.78;5006177;28;20044;-79
2023/06/18 08:29:40;;;;;;;1999.90;999.90;;;;;;;25.46;56.00;97933.00;4994456;28;20027;-84
2023/06/18 08:32:06;;;;;;;1999.90;999.90;;;;;;;25.53;55.63;97924.63;5014932;28;20016;-82
2023/06/18 08:34:32;;;;;;;1999.90;999.90;;;;;;;25.74;55.73;97917.50;5006939;28;20034;-76
2023/06/18 08:36:58;;;;;;;1999.90;999.90;;;;;;;25.95;54.78;97928.75;5002081;28;20034;-78
2023/06/18 08:39:23;;;;;;;1999.90;999.90;;;;;;;26.07;52.60;97922.78;4986509;28;20095;-73
2023/06/18 08:41:49;;;;;;;1999.90;999.90;;;;;;;26.13;51.77;97917.56;5010626;28;20058;-79
2023/06/18 08:44:15;;;;;;;1999.90;999.90;;;;;;;26.08;51.99;97922.38;5005047;28;20032;-75
2023/06/18 08:46:42;;;;;;;1999.90;999.90;;;;;;;26.26;51.11;97930.03;4976759;28;20053;-75
2023/06/18 08:49:09;;;;;;;1999.90;999.90;;;;;;;26.35;48.54;97920.03;4996908;28;20041;-80
2023/06/18 08:51:37;;;;;;;1999.90;999.90;;;;;;;26.46;48.68;97918.03;5011698;28;20494;-78
2023/06/18 08:54:14;;;;;;;1999.90;999.90;;;;;;;26.29;48.86;97912.41;4991236;28;20069;-80
2023/06/18 08:56:49;;;;;;;1999.90;999.90;;;;;;;26.33;47.51;97916.84;5016930;28;20030;-85
2023/06/18 08:59:15;;;;;;;1999.90;999.90;;;;;;;26.57;47.25;97909.59;5018995;28;20033;-79
2023/06/18 09:01:45;;;;;;;1999.90;999.90;;;;;;;26.60;45.92;97898.38;5013572;28;20030;-82
2023/06/18 09:04:12;;;;;;;1999.90;999.90;;;;;;;26.82;47.28;97904.78;5006557;28;20054;-82
2023/06/18 09:06:39;;;;;;;1999.90;999.90;;;;;;;26.99;46.87;97897.53;5019946;28;20029;-80
2023/06/18 09:09:05;;;;;;;1999.90;999.90;;;;;;;27.20;45.85;97905.91;4995057;28;20042;-81
2023/06/18 09:11:31;;;;;;;1999.90;999.90;;;;;;;27.20;43.90;97908.72;4981889;28;20036;-80
2023/06/18 09:13:57;;;;;;;1999.90;999.90;;;;;;;26.96;43.35;97903.97;5009784;28;20030;-84
2023/06/18 09:16:22;;;;;;;1999.90;999.90;;;;;;;26.53;44.55;97897.59;4994965;28;20825;-74
2023/06/18 09:18:48;;;;;;;1999.90;999.90;;;;;;;26.73;45.59;97895.16;4994349;28;20068;-75
2023/06/18 09:21:38;;;;;;;1999.90;999.90;;;;;;;26.79;44.92;97893.53;4991160;28;20357;-75
2023/06/18 09:24:19;;;;;;;1999.90;999.90;;;;;;;26.96;46.18;97885.13;4973750;28;20030;-74
2023/06/18 09:26:46;;;;;;;1999.90;999.90;;;;;;;26.88;44.71;97891.94;4990463;28;20034;-75
2023/06/18 09:29:12;;;;;;;1999.90;999.90;;;;;;;27.08;45.34;97892.28;4990840;28;20030;-74
2023/06/18 09:31:44;;;;;;;1999.90;999.90;;;;;;;26.68;45.02;97892.75;4990747;28;20510;-74
2023/06/18 09:34:20;;;;;;;1999.90;999.90;;;;;;;26.63;45.61;97884.75;4970653;28;20026;-73
2023/06/18 09:36:47;;;;;;;1999.90;999.90;;;;;;;26.56;46.12;97879.94;4990660;28;20050;-74
2023/06/18 09:39:20;;;;;;;1999.90;999.90;;;;;;;26.13;45.80;97879.09;4990252;28;20070;-74
2023/06/18 09:41:46;;;;;;;1999.90;999.90;;;;;;;26.25;47.61;97875.94;4989803;28;20484;-73
2023/06/18 09:44:14;;;;;;;1999.90;999.90;;;;;;;26.46;48.03;97869.53;4972479;28;20030;-73
2023/06/18 09:47:10;;;;;;;1999.90;999.90;;;;;;;26.68;47.46;97867.50;4993082;28;20038;-73
2023/06/18 09:49:36;;;;;;;1999.90;999.90;;;;;;;26.77;45.29;97867.88;4989973;28;20034;-75
2023/06/18 09:52:04;;;;;;;1999.90;999.90;;;;;;;26.71;44.47;97863.88;4998995;28;20025;-73
2023/06/18 09:54:43;;;;;;;1999.90;999.90;;;;;;;26.59;43.97;97860.28;4992287;28;20487;-77
2023/06/18 09:57:12;;;;;;;1999.90;999.90;;;;;;;26.47;44.08;97854.31;4994635;28;20093;-78
2023/06/18 09:59:37;;;;;;;1999.90;999.90;;;;;;;26.73;44.71;97855.84;5010033;28;20022;-80
2023/06/18 10:02:04;;;;;;;1999.90;999.90;;;;;;;26.90;43.85;97857.84;4992598;28;20041;-77
2023/06/18 10:04:30;;;;;;;1999.90;999.90;;;;;;;27.03;44.34;97847.78;4977026;28;20078;-72
2023/06/18 10:07:04;;;;;;;1999.90;999.90;;;;;;;27.25;44.58;97848.50;4972929;28;20729;-77
2023/06/18 10:09:40;;;;;;;1999.90;999.90;;;;;;;27.39;44.32;97840.78;4959483;28;20062;-74
2023/06/18 10:12:06;;;;;;;1999.90;999.90;;;;;;;27.58;43.57;97850.75;4991976;28;20634;-72
2023/06/18 10:14:33;;;;;;;1999.90;999.90;;;;;;;27.58;44.41;97857.19;4993512;28;20106;-78
2023/06/18 10:17:09;;;;;;;1999.90;999.90;;;;;;;27.53;43.66;97854.81;4992811;28;20051;-74
2023/06/18 10:19:52;;;;;;;1999.90;999.90;;;;;;;27.49;44.21;97825.94;4991835;28;20109;-76
2023/06/18 10:22:20;;;;;;;1999.90;999.90;;;;;;;27.64;46.02;97840.69;4974854;28;20122;-75
2023/06/18 10:24:54;;;;;;;1999.90;999.90;;;;;;;27.63;48.77;97836.25;4972788;28;20034;-77
2023/06/18 10:27:19;;;;;;;1999.90;999.90;;;;;;;27.41;48.12;97841.19;4990795;28;20034;-74
2023/06/18 10:29:45;;;;;;;1999.90;999.90;;;;;;;27.06;49.33;97816.88;4986175;28;20276;-79
2023/06/18 10:32:11;;;;;;;1999.90;999.90;;;;;;;26.92;56.05;97830.16;4980505;28;20089;-80
2023/06/18 10:34:39;;;;;;;1999.90;999.90;;;;;;;26.69;54.00;97832.63;4994324;28;20458;-78
2023/06/18 10:37:05;;;;;;;1999.90;999.90;;;;;;;26.47;59.38;97826.25;4977982;28;20381;-76
2023/06/18 10:39:30;;;;;;;1999.90;999.90;;;;;;;26.52;53.06;97829.44;4993852;28;20031;-76
2023/06/18 10:42:09;;;;;;;1999.90;999.90;;;;;;;26.46;57.20;97822.63;4993491;28;21462;-72
2023/06/18 10:44:47;;;;;;;1999.90;999.90;;;;;;;26.42;53.24;97826.63;4975874;28;20499;-72
2023/06/18 10:47:18;;;;;;;1999.90;999.90;;;;;;;26.22;56.48;97826.25;4975798;28;20030;-77